createdAt,value
2018-10-17T00:02:04.511Z,55.80
2018-10-17T00:04:33.768Z,55.90
2018-10-17T00:07:03.121Z,55.90
2018-10-17T00:09:32.328Z,55.90
2018-10-17T00:12:01.616Z,55.90
2018-10-17T00:14:30.868Z,55.90
2018-10-17T00:17:00.156Z,56.00
2018-10-17T00:19:29.385Z,55.90
2018-10-17T00:21:58.662Z,56.00
2018-10-17T00:24:27.909Z,56.00
2018-10-17T00:26:57.183Z,55.90
2018-10-17T00:29:26.446Z,56.00
2018-10-17T00:31:55.698Z,56.00
2018-10-17T00:34:24.939Z,56.10
2018-10-17T00:36:54.227Z,56.00
2018-10-17T00:39:23.451Z,56.10
2018-10-17T00:41:52.711Z,56.10
2018-10-17T00:44:21.970Z,56.10
2018-10-17T00:46:51.239Z,56.10
2018-10-17T00:49:20.528Z,56.10
2018-10-17T00:51:49.791Z,55.80
2018-10-17T00:54:19.084Z,56.10
2018-10-17T00:56:48.334Z,56.10
2018-10-17T00:59:17.627Z,56.10
2018-10-17T01:01:46.993Z,56.10
2018-10-17T01:04:16.232Z,56.20
2018-10-17T01:06:45.516Z,56.20
2018-10-17T01:09:15.322Z,56.50
2018-10-17T01:11:44.571Z,56.20
2018-10-17T01:14:13.813Z,56.20
2018-10-17T01:16:43.087Z,56.20
2018-10-17T01:19:12.400Z,56.20
2018-10-17T01:21:41.610Z,56.20
2018-10-17T01:24:10.848Z,56.30
2018-10-17T01:26:40.121Z,56.30
2018-10-17T01:29:09.475Z,56.30
2018-10-17T01:31:38.645Z,56.30
2018-10-17T01:34:07.881Z,56.30
2018-10-17T01:36:37.139Z,56.30
2018-10-17T01:39:09.393Z,56.30
2018-10-17T01:41:38.654Z,56.90
2018-10-17T01:44:08.295Z,56.40
2018-10-17T01:46:37.658Z,56.40
2018-10-17T01:49:06.935Z,56.40
2018-10-17T01:51:36.196Z,56.40
2018-10-17T01:54:05.474Z,56.40
2018-10-17T01:56:34.752Z,56.40
2018-10-17T01:59:04.033Z,56.40
2018-10-17T02:01:33.291Z,56.40
2018-10-17T02:04:02.544Z,56.50
2018-10-17T02:06:31.785Z,56.40
2018-10-17T02:09:01.032Z,56.50
2018-10-17T02:11:30.324Z,56.50
2018-10-17T02:13:59.575Z,56.50
2018-10-17T02:16:28.846Z,56.50
2018-10-17T02:18:58.108Z,56.60
2018-10-17T02:21:27.377Z,56.60
2018-10-17T02:23:56.676Z,56.50
2018-10-17T02:26:25.917Z,56.60
2018-10-17T02:28:55.232Z,56.60
2018-10-17T02:31:24.448Z,56.60
2018-10-17T02:33:53.699Z,56.60
2018-10-17T02:36:22.948Z,56.60
2018-10-17T02:38:52.184Z,56.70
2018-10-17T02:41:21.566Z,56.60
2018-10-17T02:43:50.771Z,56.60
2018-10-17T02:46:20.027Z,56.70
2018-10-17T02:48:49.276Z,56.70
2018-10-17T02:51:18.533Z,56.70
2018-10-17T02:53:47.791Z,56.70
2018-10-17T02:56:17.075Z,56.70
2018-10-17T02:58:46.314Z,56.60
2018-10-17T03:01:15.676Z,56.70
2018-10-17T03:03:44.864Z,56.70
2018-10-17T03:06:14.142Z,56.70
2018-10-17T03:08:43.422Z,56.70
2018-10-17T03:11:12.768Z,56.70
2018-10-17T03:13:41.951Z,56.70
2018-10-17T03:16:11.210Z,57.30
2018-10-17T03:18:40.449Z,56.70
2018-10-17T03:21:09.705Z,56.70
2018-10-17T03:23:38.941Z,56.70
2018-10-17T03:26:08.207Z,56.80
2018-10-17T03:28:37.457Z,56.80
2018-10-17T03:31:06.902Z,56.80
2018-10-17T03:33:36.088Z,56.80
2018-10-17T03:36:05.453Z,56.80
2018-10-17T03:38:34.610Z,56.80
2018-10-17T03:41:03.888Z,56.90
2018-10-17T03:43:33.126Z,56.90
2018-10-17T03:46:02.465Z,56.80
2018-10-17T03:48:31.713Z,56.80
2018-10-17T03:51:00.971Z,56.90
2018-10-17T03:53:30.237Z,56.90
2018-10-17T03:55:59.530Z,56.90
2018-10-17T03:58:28.871Z,56.90
2018-10-17T04:00:58.200Z,56.90
2018-10-17T04:03:27.432Z,57.00
2018-10-17T04:05:56.686Z,56.90
2018-10-17T04:08:25.940Z,56.90
2018-10-17T04:10:55.242Z,56.90
2018-10-17T04:13:24.511Z,57.00
2018-10-17T04:15:53.781Z,57.00
2018-10-17T04:18:23.043Z,57.00
2018-10-17T04:20:52.305Z,57.00
2018-10-17T04:23:21.558Z,57.00
2018-10-17T04:25:50.795Z,57.00
2018-10-17T04:28:20.081Z,57.00
2018-10-17T04:30:49.350Z,57.00
2018-10-17T04:33:18.622Z,57.00
2018-10-17T04:35:47.897Z,57.10
2018-10-17T04:38:17.216Z,57.00
2018-10-17T04:40:47.075Z,57.10
2018-10-17T04:43:16.439Z,57.10
2018-10-17T04:45:45.647Z,57.10
2018-10-17T04:48:14.957Z,57.10
2018-10-17T04:50:44.222Z,57.10
2018-10-17T04:53:13.637Z,57.10
2018-10-17T04:55:42.827Z,57.10
2018-10-17T04:58:12.131Z,57.10
2018-10-17T05:00:41.416Z,57.10
2018-10-17T05:03:10.686Z,57.10
2018-10-17T05:05:39.956Z,57.10
2018-10-17T05:08:09.228Z,57.10
2018-10-17T05:10:38.490Z,57.80
2018-10-17T05:13:07.914Z,57.10
2018-10-17T05:15:37.205Z,57.10
2018-10-17T05:18:06.627Z,57.10
2018-10-17T05:20:35.915Z,57.50
2018-10-17T05:23:05.423Z,57.10
2018-10-17T05:25:34.741Z,57.20
2018-10-17T05:28:04.106Z,57.10
2018-10-17T05:30:33.359Z,57.20
2018-10-17T05:33:02.674Z,57.20
2018-10-17T05:35:31.988Z,57.30
2018-10-17T05:38:01.310Z,57.20
2018-10-17T05:40:30.546Z,57.20
2018-10-17T05:42:59.873Z,57.20
2018-10-17T05:45:29.089Z,57.20
2018-10-17T05:47:58.366Z,57.20
2018-10-17T05:50:27.617Z,57.30
2018-10-17T05:52:56.938Z,57.20
2018-10-17T05:55:26.934Z,57.30
2018-10-17T05:57:56.588Z,57.30
2018-10-17T06:00:25.903Z,57.30
2018-10-17T06:02:55.419Z,57.30
2018-10-17T06:05:24.705Z,57.30
2018-10-17T06:07:53.954Z,57.40
2018-10-17T06:10:24.000Z,57.30
2018-10-17T06:12:53.195Z,57.40
2018-10-17T06:15:22.448Z,57.40
2018-10-17T06:17:51.708Z,57.40
2018-10-17T06:20:20.999Z,57.40
2018-10-17T06:22:50.275Z,57.40
2018-10-17T06:25:19.515Z,57.50
2018-10-17T06:27:48.858Z,57.50
2018-10-17T06:30:18.119Z,57.60
2018-10-17T06:32:47.386Z,57.50
2018-10-17T06:35:16.702Z,57.60
2018-10-17T06:37:45.907Z,57.60
2018-10-17T06:40:15.174Z,57.70
2018-10-17T06:42:46.043Z,57.70
2018-10-17T06:45:15.311Z,57.70
2018-10-17T06:47:44.559Z,57.70
2018-10-17T06:50:13.809Z,57.80
2018-10-17T06:52:43.114Z,57.70
2018-10-17T06:55:12.408Z,57.80
2018-10-17T06:57:41.670Z,57.90
2018-10-17T07:00:11.817Z,57.90
2018-10-17T07:02:41.107Z,58.00
2018-10-17T07:05:12.058Z,58.00
2018-10-17T07:07:41.339Z,58.60
2018-10-17T07:10:10.581Z,58.10
2018-10-17T07:12:39.831Z,58.10
2018-10-17T07:15:09.168Z,58.20
2018-10-17T07:17:38.388Z,58.20
2018-10-17T07:20:08.840Z,58.30
2018-10-17T07:22:38.181Z,58.40
2018-10-17T07:25:07.465Z,58.40
2018-10-17T07:27:37.138Z,58.50
2018-10-17T07:30:08.131Z,58.60
2018-10-17T07:32:37.393Z,58.70
2018-10-17T07:35:08.060Z,58.70
2018-10-17T07:37:37.307Z,58.70
2018-10-17T07:40:06.871Z,58.80
2018-10-17T07:42:36.378Z,58.90
2018-10-17T07:45:06.423Z,58.90
2018-10-17T07:47:35.753Z,58.90
2018-10-17T07:50:05.355Z,59.10
2018-10-17T07:52:34.645Z,59.30
2018-10-17T07:55:03.901Z,59.40
2018-10-17T07:57:33.157Z,59.40
2018-10-17T08:00:02.544Z,59.60
2018-10-17T08:02:31.753Z,59.70
2018-10-17T08:05:01.060Z,59.90
2018-10-17T08:07:30.310Z,60.20
2018-10-17T08:10:00.311Z,60.50
2018-10-17T08:12:29.578Z,60.60
2018-10-17T08:14:58.849Z,60.80
2018-10-17T08:17:28.090Z,61.20
2018-10-17T08:19:58.489Z,61.30
2018-10-17T08:22:27.814Z,61.30
2018-10-17T08:24:57.088Z,61.70
2018-10-17T08:27:26.367Z,61.90
2018-10-17T08:29:55.675Z,62.10
2018-10-17T08:32:24.917Z,62.20
2018-10-17T08:34:54.178Z,62.30
2018-10-17T08:37:23.707Z,62.50
2018-10-17T08:39:52.705Z,62.70
2018-10-17T08:42:21.954Z,62.70
2018-10-17T08:44:51.236Z,62.90
2018-10-17T08:47:20.480Z,63.20
2018-10-17T08:49:49.823Z,63.30
2018-10-17T08:52:19.097Z,63.40
2018-10-17T08:54:48.418Z,63.50
2018-10-17T08:57:17.719Z,63.60
2018-10-17T08:59:47.017Z,63.80
2018-10-17T09:02:16.316Z,63.90
2018-10-17T09:04:45.697Z,63.70
2018-10-17T09:07:14.962Z,63.60
2018-10-17T09:09:44.235Z,63.60
2018-10-17T09:12:13.553Z,63.60
2018-10-17T09:14:42.763Z,63.80
2018-10-17T09:17:12.174Z,63.50
2018-10-17T09:19:41.603Z,63.50
2018-10-17T09:22:11.003Z,63.60
2018-10-17T09:24:41.022Z,63.50
2018-10-17T09:27:10.292Z,63.50
2018-10-17T09:29:39.551Z,63.50
2018-10-17T09:32:08.824Z,63.50
2018-10-17T09:34:38.094Z,63.50
2018-10-17T09:37:07.437Z,63.40
2018-10-17T09:39:36.698Z,63.40
2018-10-17T09:42:45.556Z,63.20
2018-10-17T09:45:14.822Z,63.20
2018-10-17T09:47:44.094Z,63.00
2018-10-17T09:50:13.471Z,63.00
2018-10-17T09:52:43.211Z,62.80
2018-10-17T09:55:12.476Z,62.80
2018-10-17T09:57:41.737Z,62.70
2018-10-17T10:00:16.314Z,63.20
2018-10-17T10:02:45.492Z,62.40
2018-10-17T10:05:17.127Z,62.20
2018-10-17T10:07:46.423Z,62.10
2018-10-17T10:10:15.826Z,61.90
2018-10-17T10:12:45.190Z,61.70
2018-10-17T10:15:14.448Z,61.80
2018-10-17T10:17:43.814Z,61.70
2018-10-17T10:20:13.319Z,61.50
2018-10-17T10:22:42.618Z,61.40
2018-10-17T10:25:11.970Z,61.30
2018-10-17T10:27:41.259Z,61.10
2018-10-17T10:30:10.643Z,61.10
2018-10-17T10:32:39.876Z,61.00
2018-10-17T10:35:09.161Z,60.90
2018-10-17T10:37:38.447Z,60.70
2018-10-17T10:40:08.093Z,60.60
2018-10-17T10:42:37.368Z,60.70
2018-10-17T10:45:07.700Z,60.50
2018-10-17T10:47:36.943Z,60.40
2018-10-17T10:50:08.009Z,60.30
2018-10-17T10:52:37.270Z,60.70
2018-10-17T10:55:06.835Z,60.00
2018-10-17T10:57:36.161Z,59.80
2018-10-17T11:00:05.513Z,59.60
2018-10-17T11:02:34.820Z,59.50
2018-10-17T11:05:04.125Z,59.30
2018-10-17T11:07:33.431Z,59.30
2018-10-17T11:10:02.685Z,59.20
2018-10-17T11:12:31.958Z,59.20
2018-10-17T11:15:01.407Z,59.10
2018-10-17T11:17:30.521Z,59.20
2018-10-17T11:19:59.794Z,59.10
2018-10-17T11:22:29.057Z,58.90
2018-10-17T11:24:58.410Z,58.90
2018-10-17T11:27:27.738Z,58.80
2018-10-17T11:29:56.997Z,58.80
2018-10-17T11:32:26.411Z,58.70
2018-10-17T11:34:55.743Z,58.80
2018-10-17T11:37:25.023Z,58.80
2018-10-17T11:39:54.298Z,58.70
2018-10-17T11:42:23.557Z,58.60
2018-10-17T11:44:52.853Z,58.60
2018-10-17T11:47:22.129Z,58.50
2018-10-17T11:49:51.498Z,58.40
2018-10-17T11:52:20.775Z,58.40
2018-10-17T11:54:50.051Z,58.20
2018-10-17T11:57:19.381Z,58.10
2018-10-17T11:59:48.679Z,57.90
2018-10-17T12:02:18.035Z,57.90
2018-10-17T12:04:47.543Z,57.70
2018-10-17T12:07:16.654Z,57.80
2018-10-17T12:09:45.910Z,57.80
2018-10-17T12:12:15.263Z,57.80
2018-10-17T12:14:44.472Z,57.70
2018-10-17T12:17:13.731Z,57.60
2018-10-17T12:19:43.047Z,57.90
2018-10-17T12:22:12.348Z,57.50
2018-10-17T12:24:41.565Z,57.40
2018-10-17T12:27:10.838Z,57.30
2018-10-17T12:29:40.141Z,57.50
2018-10-17T12:32:09.476Z,57.40
2018-10-17T12:34:39.105Z,57.50
2018-10-17T12:37:08.834Z,57.50
2018-10-17T12:39:38.177Z,57.40
2018-10-17T12:42:07.352Z,57.10
2018-10-17T12:44:36.599Z,57.00
2018-10-17T12:47:06.255Z,57.00
2018-10-17T12:49:35.604Z,56.80
2018-10-17T12:52:04.952Z,56.80
2018-10-17T12:54:34.197Z,56.90
2018-10-17T12:57:03.459Z,56.70
2018-10-17T12:59:32.732Z,56.70
2018-10-17T13:02:01.990Z,56.60
2018-10-17T13:04:31.269Z,56.60
2018-10-17T13:07:00.639Z,56.50
2018-10-17T13:09:29.996Z,56.40
2018-10-17T13:11:59.232Z,56.20
2018-10-17T13:14:28.543Z,56.40
2018-10-17T13:16:57.881Z,56.30
2018-10-17T13:19:27.120Z,56.20
2018-10-17T13:21:56.409Z,56.00
2018-10-17T13:24:25.799Z,56.40
2018-10-17T13:26:55.017Z,55.80
2018-10-17T13:29:24.594Z,55.90
2018-10-17T13:31:53.860Z,55.90
2018-10-17T13:34:23.215Z,55.70
2018-10-17T13:36:52.509Z,55.70
2018-10-17T13:39:21.757Z,55.80
2018-10-17T13:41:51.167Z,55.70
2018-10-17T13:44:20.468Z,55.80
2018-10-17T13:46:49.754Z,55.50
2018-10-17T13:49:19.157Z,55.50
2018-10-17T13:51:48.310Z,55.40
2018-10-17T13:54:17.693Z,56.00
2018-10-17T13:56:47.011Z,55.30
2018-10-17T13:59:16.378Z,55.00
2018-10-17T14:01:45.694Z,55.20
2018-10-17T14:04:15.189Z,55.00
2018-10-17T14:06:44.603Z,55.10
2018-10-17T14:09:13.963Z,55.00
2018-10-17T14:11:43.334Z,55.10
2018-10-17T14:14:12.978Z,54.30
2018-10-17T14:16:42.511Z,54.80
2018-10-17T14:19:15.332Z,54.70
2018-10-17T14:21:44.614Z,54.60
2018-10-17T14:24:13.920Z,54.60
2018-10-17T14:26:43.260Z,54.50
2018-10-17T14:29:12.597Z,54.50
2018-10-17T14:31:41.841Z,54.50
2018-10-17T14:34:11.096Z,54.30
2018-10-17T14:36:40.346Z,54.50
2018-10-17T14:39:11.913Z,54.40
2018-10-17T14:41:41.087Z,54.50
2018-10-17T14:44:10.361Z,54.40
2018-10-17T14:46:39.596Z,54.20
2018-10-17T14:49:08.876Z,54.40
2018-10-17T14:51:38.138Z,54.20
2018-10-17T14:54:07.543Z,54.40
2018-10-17T14:56:36.789Z,54.30
2018-10-17T14:59:06.337Z,54.50
2018-10-17T15:01:35.618Z,54.50
2018-10-17T15:04:04.916Z,54.60
2018-10-17T15:06:34.238Z,54.50
2018-10-17T15:09:03.710Z,54.60
2018-10-17T15:11:33.058Z,54.50
2018-10-17T15:14:02.323Z,54.70
2018-10-17T15:16:32.660Z,55.00
2018-10-17T15:19:02.101Z,55.10
2018-10-17T15:21:31.493Z,55.20
2018-10-17T15:24:00.760Z,55.20
2018-10-17T15:26:29.983Z,55.40
2018-10-17T15:28:59.368Z,55.20
2018-10-17T15:31:28.771Z,55.30
2018-10-17T15:33:58.004Z,55.20
2018-10-17T15:36:27.266Z,55.20
2018-10-17T15:38:56.687Z,55.20
2018-10-17T15:41:26.084Z,55.20
2018-10-17T15:43:55.554Z,55.20
2018-10-17T15:46:25.367Z,55.20
2018-10-17T15:48:54.629Z,56.00
2018-10-17T15:51:23.886Z,55.30
2018-10-17T15:53:53.148Z,55.40
2018-10-17T15:56:22.486Z,55.40
2018-10-17T15:58:51.752Z,55.50
2018-10-17T16:01:21.000Z,55.40
2018-10-17T16:03:50.314Z,55.40
2018-10-17T16:06:19.667Z,55.40
2018-10-17T16:08:48.845Z,55.20
2018-10-17T16:11:18.152Z,55.30
2018-10-17T16:13:47.533Z,55.30
2018-10-17T16:16:16.783Z,55.30
2018-10-17T16:18:46.044Z,55.30
2018-10-17T16:21:15.317Z,55.40
2018-10-17T16:23:44.567Z,55.30
2018-10-17T16:26:13.893Z,55.30
2018-10-17T16:28:43.115Z,55.40
2018-10-17T16:31:12.462Z,55.40
2018-10-17T16:33:41.669Z,55.40
2018-10-17T16:36:11.028Z,55.40
2018-10-17T16:38:40.236Z,55.30
2018-10-17T16:41:09.568Z,55.40
2018-10-17T16:43:38.795Z,55.50
2018-10-17T16:46:08.076Z,55.50
2018-10-17T16:48:37.359Z,55.50
2018-10-17T16:51:07.084Z,55.60
2018-10-17T16:53:36.321Z,55.50
2018-10-17T16:56:05.963Z,55.60
2018-10-17T16:58:35.251Z,55.50
2018-10-17T17:01:04.550Z,55.60
2018-10-17T17:03:33.799Z,55.60
2018-10-17T17:06:03.073Z,55.70
2018-10-17T17:08:32.326Z,55.70
2018-10-17T17:11:01.596Z,55.80
2018-10-17T17:13:30.853Z,55.80
2018-10-17T17:16:00.099Z,55.80
2018-10-17T17:18:29.344Z,55.90
2018-10-17T17:20:58.634Z,56.00
2018-10-17T17:23:27.899Z,56.00
2018-10-17T17:25:57.364Z,56.10
2018-10-17T17:28:26.656Z,56.10
2018-10-17T17:30:55.976Z,56.10
2018-10-17T17:33:25.231Z,56.10
2018-10-17T17:35:54.513Z,56.20
2018-10-17T17:38:23.760Z,56.20
2018-10-17T17:40:53.022Z,56.30
2018-10-17T17:43:22.295Z,56.30
2018-10-17T17:45:51.582Z,56.30
2018-10-17T17:48:20.842Z,56.30
2018-10-17T17:50:50.120Z,56.30
2018-10-17T17:53:19.361Z,56.40
2018-10-17T17:55:48.647Z,56.40
2018-10-17T17:58:18.055Z,56.40
2018-10-17T18:00:47.258Z,56.50
2018-10-17T18:03:16.511Z,56.60
2018-10-17T18:05:45.761Z,56.60
2018-10-17T18:08:15.041Z,56.70
2018-10-17T18:10:44.296Z,56.70
2018-10-17T18:13:13.584Z,56.70
2018-10-17T18:15:42.867Z,56.80
2018-10-17T18:18:12.144Z,57.40
2018-10-17T18:20:41.387Z,56.80
2018-10-17T18:23:10.768Z,56.80
2018-10-17T18:25:40.029Z,56.80
2018-10-17T18:28:09.439Z,56.80
2018-10-17T18:30:38.587Z,56.90
2018-10-17T18:33:08.261Z,56.90
2018-10-17T18:35:37.553Z,57.30
2018-10-17T18:38:06.805Z,56.90
2018-10-17T18:40:36.071Z,57.00
2018-10-17T18:43:05.651Z,57.00
2018-10-17T18:45:34.990Z,57.10
2018-10-17T18:48:04.220Z,57.10
2018-10-17T18:50:33.499Z,57.10
2018-10-17T18:53:02.767Z,57.10
2018-10-17T18:55:32.040Z,57.10
2018-10-17T18:58:01.321Z,57.10
2018-10-17T19:00:30.590Z,57.10
2018-10-17T19:02:59.918Z,57.10
2018-10-17T19:05:29.126Z,57.20
2018-10-17T19:07:58.431Z,57.10
2018-10-17T19:10:27.661Z,57.10
2018-10-17T19:12:56.946Z,57.20
2018-10-17T19:15:26.215Z,57.10
2018-10-17T19:17:55.543Z,57.10
2018-10-17T19:20:25.222Z,57.20
2018-10-17T19:22:55.234Z,57.20
2018-10-17T19:25:24.883Z,57.20
2018-10-17T19:27:54.166Z,57.20
2018-10-17T19:30:23.456Z,57.20
2018-10-17T19:32:53.074Z,57.20
2018-10-17T19:35:22.323Z,57.30
2018-10-17T19:37:51.580Z,57.30
2018-10-17T19:40:20.839Z,57.30
2018-10-17T19:42:50.200Z,57.40
2018-10-17T19:45:20.291Z,56.80
2018-10-17T19:47:49.632Z,57.40
2018-10-17T19:50:18.885Z,57.40
2018-10-17T19:52:48.151Z,57.40
2018-10-17T19:55:17.426Z,57.40
2018-10-17T19:57:46.706Z,57.50
2018-10-17T20:00:16.049Z,57.40
2018-10-17T20:02:45.304Z,57.50
2018-10-17T20:05:14.558Z,57.50
2018-10-17T20:07:43.927Z,57.50
2018-10-17T20:10:13.086Z,57.50
2018-10-17T20:12:42.345Z,57.50
2018-10-17T20:15:11.652Z,57.50
2018-10-17T20:17:40.901Z,57.50
2018-10-17T20:20:10.169Z,57.60
2018-10-17T20:22:39.421Z,57.60
2018-10-17T20:25:08.765Z,57.60
2018-10-17T20:27:37.964Z,57.60
2018-10-17T20:30:08.586Z,57.60
2018-10-17T20:32:37.859Z,57.60
2018-10-17T20:35:07.565Z,57.70
2018-10-17T20:37:36.808Z,57.60
2018-10-17T20:40:06.068Z,57.60
2018-10-17T20:42:35.360Z,57.70
2018-10-17T20:45:04.763Z,57.70
2018-10-17T20:47:34.020Z,57.60
2018-10-17T20:50:03.294Z,57.60
2018-10-17T20:52:32.613Z,57.70
2018-10-17T20:55:01.838Z,57.70
2018-10-17T20:57:31.107Z,57.70
2018-10-17T21:00:00.374Z,57.70
2018-10-17T21:02:29.642Z,57.80
2018-10-17T21:04:58.913Z,57.80
2018-10-17T21:07:28.186Z,57.80
2018-10-17T21:09:57.442Z,57.80
2018-10-17T21:12:26.703Z,57.80
2018-10-17T21:14:55.965Z,57.90
2018-10-17T21:17:25.207Z,57.90
2018-10-17T21:19:54.552Z,57.90
2018-10-17T21:22:23.780Z,57.90
2018-10-17T21:24:53.045Z,57.90
2018-10-17T21:27:22.321Z,58.00
2018-10-17T21:29:51.605Z,57.90
2018-10-17T21:32:20.888Z,58.00
2018-10-17T21:34:50.154Z,58.00
2018-10-17T21:37:19.443Z,58.40
2018-10-17T21:39:48.705Z,58.00
2018-10-17T21:42:17.951Z,58.10
2018-10-17T21:44:47.218Z,58.10
2018-10-17T21:47:16.536Z,58.20
2018-10-17T21:49:45.763Z,58.10
2018-10-17T21:52:15.058Z,58.20
2018-10-17T21:54:44.338Z,58.20
2018-10-17T21:57:13.589Z,58.20
2018-10-17T21:59:42.860Z,58.20
2018-10-17T22:02:12.350Z,58.30
2018-10-17T22:04:41.436Z,58.20
2018-10-17T22:07:10.686Z,58.20
2018-10-17T22:09:39.955Z,58.20
2018-10-17T22:12:09.234Z,58.20
2018-10-17T22:14:38.510Z,58.20
2018-10-17T22:17:08.287Z,58.20
2018-10-17T22:19:38.580Z,58.20
2018-10-17T22:22:08.673Z,58.20
2018-10-17T22:24:37.971Z,58.20
2018-10-17T22:27:07.226Z,58.30
2018-10-17T22:29:36.493Z,58.90
2018-10-17T22:32:06.097Z,58.20
2018-10-17T22:34:35.262Z,58.20
2018-10-17T22:37:04.529Z,58.20
2018-10-17T22:39:33.781Z,58.20
2018-10-17T22:42:03.043Z,58.30
2018-10-17T22:44:32.308Z,58.20
2018-10-17T22:47:01.579Z,58.30
2018-10-17T22:49:30.875Z,58.30
2018-10-17T22:52:00.138Z,58.30
2018-10-17T22:54:29.464Z,58.30
2018-10-17T22:56:58.745Z,58.30
2018-10-17T22:59:28.481Z,58.30
2018-10-17T23:01:57.824Z,59.00
2018-10-17T23:04:27.079Z,58.30
2018-10-17T23:06:56.319Z,58.30
2018-10-17T23:09:25.600Z,58.30
2018-10-17T23:11:54.865Z,58.40
2018-10-17T23:14:24.154Z,58.40
2018-10-17T23:16:53.417Z,58.40
2018-10-17T23:19:23.043Z,58.30
2018-10-17T23:21:52.321Z,58.30
2018-10-17T23:24:21.610Z,58.30
2018-10-17T23:26:50.926Z,58.30
2018-10-17T23:29:20.198Z,58.30
2018-10-17T23:31:49.459Z,58.40
2018-10-17T23:34:18.732Z,58.30
2018-10-17T23:36:47.980Z,58.30
2018-10-17T23:39:17.295Z,58.40
2018-10-17T23:41:46.537Z,58.40
2018-10-17T23:44:15.940Z,58.40
2018-10-17T23:46:45.084Z,58.50
2018-10-17T23:49:14.381Z,58.40
2018-10-17T23:51:43.643Z,58.40
2018-10-17T23:54:12.981Z,58.50
2018-10-17T23:56:42.192Z,58.50
2018-10-17T23:59:11.460Z,58.50
